Pagrindinis puslapis
METAR-TAF:

METAR-TAF

Oro uostai :

Ljungbyhed, Švedija

platuma: 56-04N, ilguma: 013-12E, Aukštis: 43 m

Dabartinis oras

Ataskaita buvo paskelbta 11 minutes, ne 13:20 UTC
Vėjas 12 kt iš Pietų
Temperatūra 6°C
Drėgmė 87%
Slėgis 1003 hPa
Matomumas 10 km arba daugiau

METAR: ESTL 161320Z AUTO 19012KT 9999 NCD 06/04 Q1003

Laikas: 14:31 (13:31 UTC)


TAF: trūkstamas

Orai ataskaitas ir orų prognozės (METAR, TAF).

turimą stotys yra geltonos ir raudonos taškus žemėlapyje.

Perkelti pele per norėdami pamatyti stoties vardą.

Tada spustelėkite, norėdami matyti oro stebėjimo ir prognozės.

Norėdami pakeisti žemėlapį: spustelėkite ant žalios mygtukų su juodo kryžiaus žemyn,; žalią mygtuką su brūkšneliu, jei norite nutolinti; arba žalių rodyklių gretimoms žemėlapius.


METAR-TAF: